Time;durP1;ratioP1;P1;durP2;ratioP2;P2;SDS_P1;SDS_P2;PMS_P1;PMS_P2;Temp;Humidity;BMP_temperature;BMP_pressure;BME280_temperature;BME280_humidity;BME280_pressure;Samples;Min_cycle;Max_cycle;Signal;HPM_P1;HPM_P2
2021/03/07 00:00:46;;;;;;;14.57;8.53;;;-2.70;99.90;;;;;;5091383;28;20028;-73
2021/03/07 00:03:12;;;;;;;24.93;12.90;;;-2.70;99.90;;;;;;5092850;28;20120;-72
2021/03/07 00:05:37;;;;;;;24.03;11.87;;;-2.70;99.90;;;;;;5092387;28;20028;-72
2021/03/07 00:08:03;;;;;;;28.50;14.33;;;-2.80;99.90;;;;;;5092452;28;20016;-73
2021/03/07 00:10:29;;;;;;;19.00;10.60;;;-2.80;99.90;;;;;;5091112;28;20085;-72
2021/03/07 00:12:54;;;;;;;28.63;12.63;;;-2.80;99.90;;;;;;5091059;28;20020;-72
2021/03/07 00:15:20;;;;;;;28.07;13.03;;;-2.80;99.90;;;;;;5091075;28;20020;-72
2021/03/07 00:17:47;;;;;;;29.57;12.60;;;-2.80;99.90;;;;;;5090975;28;20036;-72
2021/03/07 00:20:15;;;;;;;24.93;12.30;;;-2.80;99.90;;;;;;5091016;28;20024;-73
2021/03/07 00:22:41;;;;;;;17.37;10.43;;;-2.90;99.90;;;;;;5090808;28;20106;-73
2021/03/07 00:25:09;;;;;;;21.50;10.17;;;-2.90;99.90;;;;;;5091987;28;20161;-72
2021/03/07 00:27:35;;;;;;;22.20;11.63;;;-2.90;99.90;;;;;;5091684;28;20020;-73
2021/03/07 00:30:01;;;;;;;23.63;12.90;;;-2.90;99.90;;;;;;5112150;28;20024;-71
2021/03/07 00:32:26;;;;;;;22.23;11.63;;;-2.90;99.90;;;;;;5105842;28;20077;-75
2021/03/07 00:34:52;;;;;;;23.17;11.50;;;-2.90;99.90;;;;;;5111027;28;20020;-75
2021/03/07 00:37:17;;;;;;;19.33;10.23;;;-2.90;99.90;;;;;;5100359;28;20032;-75
2021/03/07 00:39:43;;;;;;;19.80;9.57;;;-2.90;99.90;;;;;;5091000;28;20040;-75
2021/03/07 00:42:09;;;;;;;16.77;9.30;;;-2.90;99.90;;;;;;5090827;28;20107;-75
2021/03/07 00:44:34;;;;;;;13.00;8.30;;;-3.00;99.90;;;;;;5090972;28;20391;-75
2021/03/07 00:47:00;;;;;;;19.57;9.87;;;-3.00;99.90;;;;;;5089487;28;20031;-75
2021/03/07 00:49:28;;;;;;;20.17;10.07;;;-3.00;99.90;;;;;;5090931;28;20055;-75
2021/03/07 00:51:54;;;;;;;19.27;10.53;;;-3.00;99.90;;;;;;5090199;28;20111;-75
2021/03/07 00:54:20;;;;;;;18.67;9.97;;;-3.10;99.90;;;;;;5090910;28;20020;-75
2021/03/07 00:56:45;;;;;;;19.93;9.97;;;-3.10;99.90;;;;;;5089439;28;20035;-75
2021/03/07 00:59:12;;;;;;;17.53;9.53;;;-3.20;99.90;;;;;;5090708;28;20039;-75
2021/03/07 01:01:37;;;;;;;15.70;9.20;;;-3.20;99.90;;;;;;5090737;28;20059;-75
2021/03/07 01:04:04;;;;;;;18.80;10.70;;;-3.20;99.90;;;;;;5090644;28;20029;-75
2021/03/07 01:06:29;;;;;;;14.97;8.90;;;-3.20;99.90;;;;;;5090615;28;20061;-75
2021/03/07 01:08:55;;;;;;;17.97;9.30;;;-3.20;99.90;;;;;;5089001;28;20020;-75
2021/03/07 01:11:20;;;;;;;13.67;8.20;;;-3.20;99.90;;;;;;5089233;28;20024;-75
2021/03/07 01:13:46;;;;;;;15.33;9.33;;;-3.20;99.90;;;;;;5090535;28;20031;-75
2021/03/07 01:16:12;;;;;;;13.17;7.90;;;-3.20;99.90;;;;;;5089250;28;20036;-75
2021/03/07 01:18:37;;;;;;;13.13;7.77;;;-3.20;99.90;;;;;;5092929;28;20088;-75
2021/03/07 01:21:03;;;;;;;13.23;8.73;;;-3.20;99.90;;;;;;5108177;28;20051;-75
2021/03/07 01:23:34;;;;;;;14.47;8.73;;;-3.20;99.90;;;;;;5109612;28;20043;-75
2021/03/07 01:26:01;;;;;;;12.83;7.77;;;-3.20;99.90;;;;;;5110713;28;20036;-75
2021/03/07 01:28:27;;;;;;;12.20;7.97;;;-3.20;99.90;;;;;;5110775;28;20062;-75
2021/03/07 01:30:53;;;;;;;14.77;8.60;;;-3.20;99.90;;;;;;5110481;28;20115;-75
2021/03/07 01:33:18;;;;;;;15.37;8.50;;;-3.10;99.90;;;;;;5103700;28;20138;-75
2021/03/07 01:35:44;;;;;;;14.20;8.30;;;-3.20;99.90;;;;;;5110563;28;20046;-75
2021/03/07 01:38:10;;;;;;;16.07;7.90;;;-3.10;99.90;;;;;;5090433;28;20119;-75
2021/03/07 01:40:47;;;;;;;12.63;8.27;;;-3.20;99.90;;;;;;5090228;28;20028;-75
2021/03/07 01:43:14;;;;;;;13.20;8.10;;;-3.10;99.90;;;;;;5090589;28;20109;-75
2021/03/07 01:45:40;;;;;;;13.47;8.90;;;-3.20;99.90;;;;;;5090273;28;20410;-75
2021/03/07 01:48:08;;;;;;;16.00;9.27;;;-3.20;99.90;;;;;;5089986;28;20107;-75
2021/03/07 01:50:36;;;;;;;17.33;9.33;;;-3.20;99.90;;;;;;5089866;28;20106;-75
2021/03/07 01:53:03;;;;;;;14.57;8.03;;;-3.20;99.90;;;;;;5090048;28;20129;-75
2021/03/07 01:55:32;;;;;;;13.90;8.57;;;-3.20;99.90;;;;;;5088715;28;20032;-75
2021/03/07 01:58:07;;;;;;;13.80;8.27;;;-3.20;99.90;;;;;;5090048;28;20563;-75
2021/03/07 02:00:32;;;;;;;17.10;8.65;;;-3.20;99.90;;;;;;5090112;28;20103;-75
2021/03/07 02:02:58;;;;;;;19.37;8.80;;;-3.30;99.90;;;;;;5098539;28;20119;-75
2021/03/07 02:05:27;;;;;;;15.83;9.07;;;-3.30;99.90;;;;;;5113256;28;20024;-75
2021/03/07 02:07:53;;;;;;;13.20;8.13;;;-3.30;99.90;;;;;;5114323;28;20099;-75
2021/03/07 02:10:43;;;;;;;15.93;8.57;;;-3.30;99.90;;;;;;5114441;28;20421;-75
2021/03/07 02:13:15;;;;;;;15.10;8.53;;;-3.30;99.90;;;;;;5091856;28;20032;-75
2021/03/07 02:15:44;;;;;;;15.17;8.60;;;-3.40;99.90;;;;;;5094124;28;20043;-75
2021/03/07 02:18:12;;;;;;;13.13;8.60;;;-3.40;99.90;;;;;;5106992;28;20388;-75
2021/03/07 02:20:43;;;;;;;13.53;7.87;;;-3.40;99.90;;;;;;5113026;28;20023;-75
2021/03/07 02:23:16;;;;;;;11.63;8.20;;;-3.40;99.90;;;;;;5114378;28;20117;-75
2021/03/07 02:25:41;;;;;;;16.20;7.63;;;-3.40;99.90;;;;;;5114064;28;20055;-75
2021/03/07 02:28:08;;;;;;;12.33;8.13;;;-3.40;99.90;;;;;;5114283;28;20703;-75
2021/03/07 02:30:34;;;;;;;15.00;8.57;;;-3.50;99.90;;;;;;5113036;28;20052;-75
2021/03/07 02:33:08;;;;;;;16.57;8.90;;;-3.50;99.90;;;;;;5105934;28;20022;-75
2021/03/07 02:35:37;;;;;;;13.77;8.57;;;-3.50;99.90;;;;;;5113937;28;20024;-75
2021/03/07 02:38:05;;;;;;;12.97;8.43;;;-3.50;99.90;;;;;;5096354;28;20032;-75
2021/03/07 02:40:32;;;;;;;15.53;9.10;;;-3.50;99.90;;;;;;5092062;28;20043;-75
2021/03/07 02:42:59;;;;;;;14.63;8.27;;;-3.50;99.90;;;;;;5092217;28;20387;-75
2021/03/07 02:45:26;;;;;;;14.93;8.13;;;-3.50;99.90;;;;;;5092144;28;20365;-75
2021/03/07 02:47:53;;;;;;;11.50;7.30;;;-3.50;99.90;;;;;;5093218;28;20100;-75
2021/03/07 02:50:26;;;;;;;13.53;7.63;;;-3.60;99.90;;;;;;5094246;28;20021;-75
2021/03/07 02:53:00;;;;;;;13.43;8.13;;;-3.60;99.90;;;;;;5091858;28;20032;-75
2021/03/07 02:55:29;;;;;;;14.50;8.50;;;-3.60;99.90;;;;;;5093411;28;20033;-75
2021/03/07 02:57:59;;;;;;;14.17;8.87;;;-3.60;99.90;;;;;;5093184;28;20020;-75
2021/03/07 03:00:26;;;;;;;13.73;8.53;;;-3.60;99.90;;;;;;5093075;28;20342;-75
2021/03/07 03:02:53;;;;;;;13.47;7.80;;;-3.60;99.90;;;;;;5091764;28;20044;-75
2021/03/07 03:05:20;;;;;;;14.70;9.10;;;-3.60;99.90;;;;;;5092919;28;20102;-75
2021/03/07 03:07:46;;;;;;;12.03;7.90;;;-3.60;99.90;;;;;;5093267;28;20024;-75
2021/03/07 03:10:13;;;;;;;16.27;9.03;;;-3.60;99.90;;;;;;5093103;28;20036;-75
2021/03/07 03:12:41;;;;;;;15.23;8.07;;;-3.60;99.90;;;;;;5093260;28;20091;-75
2021/03/07 03:15:09;;;;;;;17.00;9.13;;;-3.60;99.90;;;;;;5091215;28;20154;-75
2021/03/07 03:17:36;;;;;;;14.13;8.53;;;-3.60;99.90;;;;;;5093431;28;20024;-75
2021/03/07 03:20:06;;;;;;;14.77;8.50;;;-3.60;99.90;;;;;;5092698;28;20033;-75
2021/03/07 03:22:33;;;;;;;18.27;8.93;;;-3.60;99.90;;;;;;5092774;28;20032;-75
2021/03/07 03:24:59;;;;;;;13.33;8.17;;;-3.60;99.90;;;;;;5092560;28;20044;-75
2021/03/07 03:27:24;;;;;;;13.97;8.10;;;-3.70;99.90;;;;;;5092830;28;20047;-75
2021/03/07 03:29:50;;;;;;;14.13;9.23;;;-3.70;99.90;;;;;;5091301;28;20012;-75
2021/03/07 03:32:15;;;;;;;15.77;9.63;;;-3.70;99.90;;;;;;5092699;28;20028;-75
2021/03/07 03:34:41;;;;;;;12.73;8.00;;;-3.70;99.90;;;;;;5110930;28;20084;-75
2021/03/07 03:37:07;;;;;;;17.83;8.97;;;-3.70;99.90;;;;;;5101922;28;20412;-75
2021/03/07 03:39:34;;;;;;;13.60;9.00;;;-3.70;99.90;;;;;;5102383;28;20027;-75
2021/03/07 03:42:04;;;;;;;12.83;8.03;;;-3.80;99.90;;;;;;5112884;28;20031;-75
2021/03/07 03:44:33;;;;;;;12.33;8.43;;;-3.80;99.90;;;;;;5111190;28;20387;-75
2021/03/07 03:47:00;;;;;;;14.10;8.63;;;-3.80;99.90;;;;;;5092308;28;20429;-75
2021/03/07 03:49:44;;;;;;;14.97;8.77;;;-3.80;99.90;;;;;;5092240;28;20121;-75
2021/03/07 03:52:10;;;;;;;16.03;7.93;;;-3.80;99.90;;;;;;5092359;28;20150;-75
2021/03/07 03:55:06;;;;;;;15.33;9.27;;;-3.80;99.90;;;;;;5092233;28;20035;-75
2021/03/07 03:57:35;;;;;;;11.90;8.30;;;-3.80;99.90;;;;;;5079808;28;20032;-75
2021/03/07 04:00:04;;;;;;;12.60;7.90;;;-3.90;99.90;;;;;;5092127;28;20012;-75
2021/03/07 04:02:32;;;;;;;13.67;8.27;;;-3.90;99.90;;;;;;5091132;28;20389;-75
2021/03/07 04:05:01;;;;;;;16.10;8.50;;;-3.90;99.90;;;;;;5091793;28;20024;-75
2021/03/07 04:07:27;;;;;;;12.03;8.03;;;-3.90;99.90;;;;;;5092002;28;20082;-75
2021/03/07 04:09:54;;;;;;;13.67;8.33;;;-4.00;99.90;;;;;;5090720;28;20034;-75
2021/03/07 04:12:22;;;;;;;13.03;8.43;;;-4.00;99.90;;;;;;5092058;28;20031;-75
2021/03/07 04:14:48;;;;;;;13.10;8.10;;;-4.00;99.90;;;;;;5090344;28;20109;-75
2021/03/07 04:17:21;;;;;;;12.53;8.30;;;-4.00;99.90;;;;;;5091829;28;20036;-75
2021/03/07 04:19:47;;;;;;;14.97;7.80;;;-4.00;99.90;;;;;;5091876;28;20024;-75
2021/03/07 04:22:14;;;;;;;13.93;8.03;;;-4.10;99.90;;;;;;5090625;28;20034;-75
2021/03/07 04:24:40;;;;;;;15.63;8.67;;;-4.10;99.90;;;;;;5091517;28;20097;-75
2021/03/07 04:27:07;;;;;;;14.90;8.60;;;-4.10;99.90;;;;;;5090659;28;20473;-75
2021/03/07 04:29:33;;;;;;;18.17;8.40;;;-4.10;99.90;;;;;;5090474;28;20020;-75
2021/03/07 04:31:59;;;;;;;12.80;8.10;;;-4.20;99.90;;;;;;5091523;28;20046;-75
2021/03/07 04:34:26;;;;;;;16.17;8.20;;;-4.20;99.90;;;;;;5107705;28;20059;-75
2021/03/07 04:36:52;;;;;;;13.47;8.77;;;-4.20;99.90;;;;;;5102770;28;20089;-74
2021/03/07 04:39:18;;;;;;;15.97;8.47;;;-4.20;99.90;;;;;;5090078;28;20032;-75
2021/03/07 04:41:44;;;;;;;15.60;8.57;;;-4.20;99.90;;;;;;5098791;28;20476;-75
2021/03/07 04:44:10;;;;;;;13.77;8.10;;;-4.20;99.90;;;;;;5111864;28;20186;-75
2021/03/07 04:46:35;;;;;;;15.47;7.80;;;-4.30;99.90;;;;;;5104797;28;20028;-75
2021/03/07 04:49:01;;;;;;;12.43;8.13;;;-4.30;99.90;;;;;;5089646;28;20172;-75
2021/03/07 04:51:27;;;;;;;12.73;7.47;;;-4.30;99.90;;;;;;5091128;28;20085;-75
2021/03/07 04:53:52;;;;;;;12.30;7.50;;;-4.30;99.90;;;;;;5091363;28;20526;-72
2021/03/07 04:56:18;;;;;;;16.13;8.57;;;-4.20;99.90;;;;;;5091110;28;20038;-75
2021/03/07 04:58:44;;;;;;;12.57;8.70;;;-4.20;99.90;;;;;;5090917;28;20035;-75
2021/03/07 05:01:09;;;;;;;13.83;8.07;;;-4.20;99.90;;;;;;5095514;28;20332;-76
2021/03/07 05:03:35;;;;;;;14.93;8.93;;;-4.30;99.90;;;;;;5111367;28;20604;-75
2021/03/07 05:06:01;;;;;;;14.00;8.10;;;-4.30;99.90;;;;;;5109983;28;20114;-75
2021/03/07 05:08:27;;;;;;;14.27;8.10;;;-4.30;99.90;;;;;;5111206;28;20019;-74
2021/03/07 05:10:53;;;;;;;11.67;7.80;;;-4.30;99.90;;;;;;5111491;28;20028;-75
2021/03/07 05:13:19;;;;;;;14.47;8.47;;;-4.30;99.90;;;;;;5111332;28;20851;-75
2021/03/07 05:15:45;;;;;;;13.27;8.77;;;-4.30;99.90;;;;;;5109726;28;20110;-75
2021/03/07 05:18:10;;;;;;;14.23;7.60;;;-4.30;99.90;;;;;;5109704;28;20028;-75
2021/03/07 05:20:36;;;;;;;15.97;9.67;;;-4.40;99.90;;;;;;5111139;28;20031;-75
2021/03/07 05:23:02;;;;;;;13.73;7.90;;;-4.40;99.90;;;;;;5111004;28;20440;-75
2021/03/07 05:25:27;;;;;;;13.43;8.10;;;-4.40;99.90;;;;;;5109355;28;20609;-75
2021/03/07 05:27:54;;;;;;;13.40;8.80;;;-4.40;99.90;;;;;;5110931;28;20027;-75
2021/03/07 05:30:20;;;;;;;14.03;8.00;;;-4.50;99.90;;;;;;5110149;28;20023;-75
2021/03/07 05:32:46;;;;;;;13.17;7.87;;;-4.50;99.90;;;;;;5103844;28;20028;-75
2021/03/07 05:35:12;;;;;;;13.93;8.70;;;-4.50;99.90;;;;;;5109577;28;20365;-84
2021/03/07 05:37:38;;;;;;;15.47;8.53;;;-4.50;99.90;;;;;;5096888;28;20028;-73
2021/03/07 05:40:05;;;;;;;12.50;8.07;;;-4.50;99.90;;;;;;5089498;28;20020;-74
2021/03/07 05:42:30;;;;;;;12.57;7.70;;;-4.50;99.90;;;;;;5091819;28;20081;-74
2021/03/07 05:44:56;;;;;;;11.10;7.70;;;-4.50;99.90;;;;;;5099449;28;20023;-75
2021/03/07 05:47:21;;;;;;;12.47;7.80;;;-4.50;99.90;;;;;;5099189;28;20028;-74
2021/03/07 05:49:47;;;;;;;14.80;8.73;;;-4.50;99.90;;;;;;5097122;28;20058;-73
2021/03/07 05:52:13;;;;;;;15.43;9.03;;;-4.50;99.90;;;;;;5093029;28;20049;-73
2021/03/07 05:54:38;;;;;;;13.17;8.30;;;-4.50;99.90;;;;;;5093682;28;20104;-73
2021/03/07 05:57:06;;;;;;;11.03;8.03;;;-4.50;99.90;;;;;;5103268;28;20027;-75
2021/03/07 05:59:34;;;;;;;16.73;7.93;;;-4.50;99.90;;;;;;5089943;28;20026;-75
2021/03/07 06:01:59;;;;;;;13.57;8.70;;;-4.50;99.90;;;;;;5088555;28;20035;-75
2021/03/07 06:04:25;;;;;;;13.90;7.63;;;-4.50;99.90;;;;;;5088784;28;20032;-75
2021/03/07 06:06:50;;;;;;;13.00;7.87;;;-4.50;99.90;;;;;;5089640;28;20032;-75
2021/03/07 06:09:28;;;;;;;14.80;8.50;;;-4.50;99.90;;;;;;5088385;28;20453;-75
2021/03/07 06:11:57;;;;;;;14.23;7.87;;;-4.40;99.90;;;;;;5085853;28;20036;-75
2021/03/07 06:14:33;;;;;;;14.53;7.90;;;-4.40;99.90;;;;;;5088163;28;20434;-75
2021/03/07 06:17:01;;;;;;;13.53;8.23;;;-4.40;99.90;;;;;;5086256;28;20031;-75
2021/03/07 06:19:28;;;;;;;13.27;7.67;;;-4.30;99.90;;;;;;5089694;28;20024;-75
2021/03/07 06:21:54;;;;;;;13.77;7.73;;;-4.30;99.90;;;;;;5088059;28;20024;-75
2021/03/07 06:24:37;;;;;;;14.37;8.97;;;-4.30;99.90;;;;;;5089664;28;20036;-75
2021/03/07 06:27:04;;;;;;;16.80;9.37;;;-4.20;99.90;;;;;;5086318;28;20133;-75
2021/03/07 06:29:30;;;;;;;16.47;9.60;;;-4.20;99.90;;;;;;5089648;28;20023;-75
2021/03/07 06:31:55;;;;;;;14.57;9.07;;;-4.20;99.90;;;;;;5087993;28;20401;-75
2021/03/07 06:34:21;;;;;;;13.73;8.40;;;-4.10;99.90;;;;;;5105620;28;20096;-75
2021/03/07 06:36:46;;;;;;;12.77;8.87;;;-4.10;99.90;;;;;;5110250;28;20463;-75
2021/03/07 06:39:12;;;;;;;16.97;9.07;;;-4.00;99.90;;;;;;5110191;28;20038;-75
2021/03/07 06:41:37;;;;;;;14.00;8.97;;;-3.90;99.90;;;;;;5110287;28;20020;-75
2021/03/07 06:44:19;;;;;;;14.17;9.10;;;-3.80;99.90;;;;;;5108778;28;20042;-75
2021/03/07 06:46:47;;;;;;;12.60;8.77;;;-3.70;99.90;;;;;;5110260;28;20367;-74
2021/03/07 06:49:27;;;;;;;16.20;8.70;;;-3.60;99.90;;;;;;5095070;28;20056;-75
2021/03/07 06:52:00;;;;;;;13.53;7.90;;;-3.60;99.90;;;;;;5092144;28;20051;-75
2021/03/07 06:54:28;;;;;;;15.87;9.63;;;-3.50;99.90;;;;;;5100056;28;20027;-75
2021/03/07 06:56:54;;;;;;;19.27;9.40;;;-3.40;99.90;;;;;;5091753;28;20085;-75
2021/03/07 06:59:24;;;;;;;18.37;8.97;;;-3.30;99.90;;;;;;5092900;28;20563;-75
2021/03/07 07:01:54;;;;;;;16.27;9.03;;;-3.20;99.90;;;;;;5092914;28;20031;-75
2021/03/07 07:04:21;;;;;;;14.30;9.37;;;-3.10;99.90;;;;;;5091118;28;20031;-75
2021/03/07 07:07:03;;;;;;;15.20;10.20;;;-3.00;99.90;;;;;;5092557;28;20385;-75
2021/03/07 07:09:28;;;;;;;17.47;9.37;;;-2.90;99.90;;;;;;5089865;28;20125;-75
2021/03/07 07:11:54;;;;;;;16.37;9.60;;;-2.80;99.90;;;;;;5092850;28;20540;-75
2021/03/07 07:14:35;;;;;;;14.67;9.47;;;-2.60;99.90;;;;;;5093216;28;20032;-74
2021/03/07 07:17:01;;;;;;;13.43;8.87;;;-2.50;99.90;;;;;;5092736;28;20476;-76
2021/03/07 07:19:26;;;;;;;13.43;8.80;;;-2.40;99.90;;;;;;5092817;28;20032;-76
2021/03/07 07:21:52;;;;;;;14.10;8.47;;;-2.30;99.90;;;;;;5092861;28;20054;-75
2021/03/07 07:24:17;;;;;;;15.23;8.33;;;-2.10;99.90;;;;;;5092093;28;20063;-73
2021/03/07 07:26:46;;;;;;;14.13;8.87;;;-2.00;99.90;;;;;;5092200;28;20073;-74
2021/03/07 07:29:12;;;;;;;14.10;9.07;;;-1.90;99.90;;;;;;5092128;28;20036;-74
2021/03/07 07:31:45;;;;;;;15.13;8.97;;;-1.80;99.90;;;;;;5092936;28;20112;-75
2021/03/07 07:34:17;;;;;;;14.07;7.80;;;-1.60;99.90;;;;;;5094854;28;20469;-75
2021/03/07 07:36:54;;;;;;;14.97;7.93;;;-1.50;99.90;;;;;;5091833;28;20052;-76
2021/03/07 07:39:31;;;;;;;11.93;8.40;;;-1.40;99.90;;;;;;5101635;28;20119;-74
2021/03/07 07:41:57;;;;;;;14.00;8.97;;;-1.30;99.90;;;;;;5112290;28;20028;-75
2021/03/07 07:44:31;;;;;;;13.10;8.67;;;-1.10;99.90;;;;;;5111197;28;20024;-75
2021/03/07 07:47:04;;;;;;;11.33;7.17;;;-0.90;99.90;;;;;;5101380;28;20424;-75
2021/03/07 07:49:49;;;;;;;16.47;8.97;;;-0.70;99.90;;;;;;5092207;28;20277;-75
2021/03/07 07:52:21;;;;;;;16.58;9.18;;;-0.60;99.90;;;;;;5090328;28;20468;-75
2021/03/07 07:54:54;;;;;;;16.10;9.83;;;-0.50;99.90;;;;;;5086474;28;20538;-73
2021/03/07 07:57:36;;;;;;;13.93;9.97;;;-0.40;99.90;;;;;;5086986;28;20050;-75
2021/03/07 08:00:09;;;;;;;16.57;10.40;;;-0.30;99.90;;;;;;5088515;28;20032;-75
2021/03/07 08:02:50;;;;;;;14.97;9.87;;;-0.20;99.90;;;;;;5088685;28;20024;-75
2021/03/07 08:05:36;;;;;;;14.27;10.30;;;-0.10;99.90;;;;;;5089369;28;20028;-75
2021/03/07 08:08:10;;;;;;;;;;;0.10;99.90;;;;;;5078784;28;20032;-75
2021/03/07 08:10:43;;;;;;;13.80;9.23;;;0.20;99.90;;;;;;5089928;28;19908;-74
2021/03/07 08:13:14;;;;;;;15.70;9.17;;;0.40;99.90;;;;;;5090622;28;20484;-75
2021/03/07 08:15:51;;;;;;;14.30;9.90;;;0.50;99.90;;;;;;5084909;28;20043;-75
2021/03/07 08:18:19;;;;;;;14.03;10.10;;;0.60;99.90;;;;;;5090264;28;20028;-74
2021/03/07 08:20:44;;;;;;;15.00;9.97;;;0.80;99.90;;;;;;5089515;28;20054;-74
2021/03/07 08:23:23;;;;;;;13.73;9.80;;;0.90;99.90;;;;;;5090018;28;20032;-75
2021/03/07 08:25:51;;;;;;;18.27;11.47;;;1.00;99.90;;;;;;5086317;28;20055;-75
2021/03/07 08:28:29;;;;;;;16.57;11.27;;;1.00;99.90;;;;;;5088680;28;20032;-75
2021/03/07 08:31:03;;;;;;;16.93;10.47;;;1.10;99.90;;;;;;5089553;28;20016;-75
2021/03/07 08:33:40;;;;;;;15.03;10.43;;;1.10;99.90;;;;;;5090751;28;20484;-75
2021/03/07 08:36:15;;;;;;;17.20;11.83;;;1.20;99.90;;;;;;5088964;28;20277;-75
2021/03/07 08:38:52;;;;;;;18.58;12.95;;;1.30;99.90;;;;;;5087025;28;20028;-74
2021/03/07 08:41:20;;;;;;;17.33;12.17;;;1.50;99.90;;;;;;5086839;28;20031;-75
2021/03/07 08:43:48;;;;;;;18.37;12.13;;;1.70;99.90;;;;;;5089909;28;20375;-74
2021/03/07 08:46:16;;;;;;;17.43;11.57;;;1.80;99.90;;;;;;5086976;28;20059;-75
2021/03/07 08:48:44;;;;;;;17.20;11.27;;;1.90;99.90;;;;;;5088881;28;20060;-75
2021/03/07 08:51:11;;;;;;;17.07;11.27;;;2.00;99.90;;;;;;5087775;28;20032;-74
2021/03/07 08:53:38;;;;;;;18.47;13.10;;;2.10;99.90;;;;;;5088503;28;20070;-74
2021/03/07 08:56:05;;;;;;;20.23;12.87;;;2.20;99.90;;;;;;5086464;28;20128;-75
2021/03/07 08:58:30;;;;;;;17.43;12.67;;;2.30;99.90;;;;;;5088647;28;20085;-74
2021/03/07 09:00:58;;;;;;;18.43;12.97;;;2.40;99.90;;;;;;5088275;28;20532;-74
2021/03/07 09:03:25;;;;;;;20.93;13.63;;;2.60;99.90;;;;;;5089338;28;20031;-75
2021/03/07 09:05:51;;;;;;;20.00;13.30;;;2.70;99.90;;;;;;5086302;28;20152;-74
2021/03/07 09:08:25;;;;;;;19.17;13.87;;;2.70;99.90;;;;;;5087508;28;20100;-74
2021/03/07 09:10:53;;;;;;;22.00;13.80;;;2.80;99.90;;;;;;5088200;28;20495;-74
2021/03/07 09:13:21;;;;;;;18.67;13.30;;;3.00;99.90;;;;;;5085579;28;20027;-75
2021/03/07 09:16:04;;;;;;;21.77;13.77;;;3.10;99.90;;;;;;5086454;28;20032;-75
2021/03/07 09:18:32;;;;;;;18.80;13.40;;;3.30;99.90;;;;;;5087331;28;20134;-76
2021/03/07 09:21:06;;;;;;;19.93;13.47;;;3.60;99.90;;;;;;5087624;28;20528;-76
2021/03/07 09:23:39;;;;;;;19.67;13.73;;;3.70;99.90;;;;;;5090475;28;20548;-76
2021/03/07 09:26:12;;;;;;;20.67;13.63;;;3.80;99.90;;;;;;5087624;28;20557;-76
2021/03/07 09:28:49;;;;;;;17.67;13.60;;;4.00;99.90;;;;;;5088739;28;20035;-74
2021/03/07 09:31:30;;;;;;;16.47;12.53;;;4.10;99.90;;;;;;5084303;28;20103;-75
2021/03/07 09:33:57;;;;;;;16.13;11.80;;;4.30;99.90;;;;;;5087857;28;20180;-75
2021/03/07 09:36:28;;;;;;;16.50;11.90;;;4.60;99.90;;;;;;5088183;28;20032;-75
2021/03/07 09:39:03;;;;;;;18.13;12.67;;;4.80;99.90;;;;;;5087573;28;20035;-75
2021/03/07 09:41:28;;;;;;;17.35;12.07;;;5.00;99.90;;;;;;5089085;28;20468;-75
2021/03/07 09:43:54;;;;;;;17.00;12.47;;;5.10;99.90;;;;;;5086820;28;20036;-75
2021/03/07 09:46:22;;;;;;;17.87;11.63;;;5.20;99.90;;;;;;5087446;28;20102;-75
2021/03/07 09:48:48;;;;;;;15.00;11.57;;;5.30;99.90;;;;;;5089610;28;20107;-85
2021/03/07 09:51:16;;;;;;;16.33;11.60;;;5.40;99.90;;;;;;5091186;28;20020;-85
2021/03/07 09:53:42;;;;;;;16.90;12.63;;;5.30;99.90;;;;;;5090698;28;20461;-87
2021/03/07 09:56:28;;;;;;;17.57;12.37;;;5.50;99.90;;;;;;5087012;28;20496;-72
2021/03/07 09:58:54;;;;;;;18.53;12.03;;;5.90;99.90;;;;;;5087639;28;20385;-70
2021/03/07 10:01:20;;;;;;;16.53;12.33;;;6.20;99.90;;;;;;5089566;28;20024;-69
2021/03/07 10:03:46;;;;;;;21.03;12.80;;;6.40;99.90;;;;;;5088839;28;20024;-64
2021/03/07 10:06:17;;;;;;;17.13;12.47;;;6.50;99.90;;;;;;5083362;28;20028;-78
2021/03/07 10:08:44;;;;;;;15.53;11.83;;;6.40;99.90;;;;;;5089370;28;20063;-72
2021/03/07 10:11:30;;;;;;;17.37;11.70;;;6.80;99.90;;;;;;5089055;28;20059;-72
2021/03/07 10:14:04;;;;;;;15.13;11.30;;;7.00;99.90;;;;;;5089480;28;20032;-72
2021/03/07 10:16:32;;;;;;;16.13;11.00;;;7.00;99.90;;;;;;5086150;28;20097;-72
2021/03/07 10:19:08;;;;;;;14.10;11.00;;;6.80;99.90;;;;;;5087444;28;20027;-72
2021/03/07 10:21:34;;;;;;;16.80;11.10;;;6.90;99.90;;;;;;5088177;28;20020;-72
2021/03/07 10:24:11;;;;;;;15.53;11.27;;;7.10;99.90;;;;;;5088635;28;20074;-72
2021/03/07 10:26:38;;;;;;;14.77;11.63;;;7.40;99.90;;;;;;5090696;28;20512;-72
2021/03/07 10:29:18;;;;;;;16.17;11.97;;;7.50;99.90;;;;;;5091240;28;20453;-72
2021/03/07 10:32:05;;;;;;;15.67;11.30;;;7.50;99.90;;;;;;5090087;28;20016;-72
2021/03/07 10:34:52;;;;;;;16.37;10.90;;;7.50;99.90;;;;;;5090847;28;20103;-71
2021/03/07 10:37:40;;;;;;;21.63;12.00;;;7.70;99.90;;;;;;5092432;28;20047;-72
2021/03/07 10:40:11;;;;;;;16.23;11.10;;;7.80;99.90;;;;;;5092013;28;20024;-71
2021/03/07 10:42:39;;;;;;;14.63;11.13;;;8.10;99.90;;;;;;5093227;28;20020;-71
2021/03/07 10:45:11;;;;;;;14.27;10.60;;;8.20;99.90;;;;;;5091952;28;20044;-71
2021/03/07 10:47:36;;;;;;;15.83;11.23;;;8.30;99.90;;;;;;5090741;28;20411;-71
2021/03/07 10:50:03;;;;;;;18.80;11.67;;;8.50;99.90;;;;;;5091488;28;20032;-71
2021/03/07 10:52:29;;;;;;;14.83;11.80;;;8.60;99.90;;;;;;5091869;28;20027;-71
2021/03/07 10:54:55;;;;;;;16.33;11.87;;;8.80;99.90;;;;;;5092496;28;20032;-71
2021/03/07 10:57:20;;;;;;;15.50;11.27;;;8.90;99.90;;;;;;5091314;28;20024;-71
2021/03/07 10:59:51;;;;;;;17.03;11.73;;;8.80;99.90;;;;;;5093691;28;20024;-71
2021/03/07 11:02:17;;;;;;;14.20;11.33;;;8.90;99.90;;;;;;5092827;28;20030;-71
2021/03/07 11:04:46;;;;;;;16.03;11.53;;;8.80;99.90;;;;;;5092882;28;20043;-71
2021/03/07 11:07:12;;;;;;;16.93;12.27;;;8.60;99.90;;;;;;5091149;28;20035;-72
2021/03/07 11:09:39;;;;;;;17.23;13.00;;;8.70;99.90;;;;;;5092092;28;20024;-72
2021/03/07 11:12:06;;;;;;;19.53;12.60;;;8.70;99.90;;;;;;5089753;28;20028;-72
2021/03/07 11:14:31;;;;;;;17.23;12.10;;;8.70;99.90;;;;;;5092004;28;20024;-72
2021/03/07 11:16:57;;;;;;;17.17;11.60;;;8.70;99.90;;;;;;5090125;28;20151;-72
2021/03/07 11:19:22;;;;;;;14.77;11.60;;;8.80;99.90;;;;;;5091602;28;20031;-72
2021/03/07 11:21:48;;;;;;;16.13;12.10;;;8.90;99.90;;;;;;5090475;28;20028;-72
2021/03/07 11:24:13;;;;;;;17.20;12.63;;;9.00;99.90;;;;;;5089757;28;20055;-73
2021/03/07 11:26:39;;;;;;;17.80;11.77;;;9.20;99.90;;;;;;5088852;28;20032;-72
2021/03/07 11:29:05;;;;;;;17.77;11.97;;;9.20;99.90;;;;;;5089555;28;20024;-72
2021/03/07 11:31:31;;;;;;;14.77;11.80;;;9.20;99.90;;;;;;5090203;28;20016;-72
2021/03/07 11:33:56;;;;;;;16.40;12.67;;;9.00;99.90;;;;;;5091397;28;20032;-72
2021/03/07 11:36:22;;;;;;;13.70;11.50;;;9.20;99.90;;;;;;5091768;28;20084;-72
2021/03/07 11:38:47;;;;;;;18.93;12.57;;;9.30;99.90;;;;;;5091354;28;20480;-72
2021/03/07 11:41:13;;;;;;;17.33;11.70;;;9.20;99.90;;;;;;5092927;28;20111;-72
2021/03/07 11:43:38;;;;;;;16.73;12.10;;;9.30;99.90;;;;;;5093143;28;20027;-72
2021/03/07 11:46:04;;;;;;;21.37;12.70;;;9.30;99.90;;;;;;5091753;28;20111;-73
2021/03/07 11:48:29;;;;;;;19.00;12.80;;;9.50;99.90;;;;;;5093331;28;20058;-72
2021/03/07 11:50:55;;;;;;;15.60;11.40;;;9.30;99.90;;;;;;5074173;28;20119;-72
2021/03/07 11:53:21;;;;;;;15.60;11.90;;;9.20;99.90;;;;;;5087293;28;20060;-73
2021/03/07 11:55:46;;;;;;;17.93;11.37;;;9.20;99.90;;;;;;5072801;28;20333;-72
2021/03/07 11:58:12;;;;;;;16.03;11.30;;;9.20;99.90;;;;;;5072401;28;20100;-73
2021/03/07 12:00:37;;;;;;;16.20;12.10;;;9.20;99.90;;;;;;5077393;28;20452;-73
2021/03/07 12:03:03;;;;;;;17.73;11.67;;;9.10;99.90;;;;;;5091291;28;20089;-74
2021/03/07 12:05:28;;;;;;;14.70;11.30;;;9.20;99.90;;;;;;5090236;28;20487;-74
2021/03/07 12:07:54;;;;;;;14.53;11.47;;;9.20;99.90;;;;;;5100158;28;20026;-73
2021/03/07 12:10:19;;;;;;;16.30;11.70;;;9.30;99.90;;;;;;5110862;28;20068;-73
2021/03/07 12:12:45;;;;;;;15.37;11.47;;;9.40;99.90;;;;;;5113624;28;20042;-72
2021/03/07 12:15:11;;;;;;;18.60;12.13;;;9.50;99.90;;;;;;5111889;28;20073;-73
2021/03/07 12:17:37;;;;;;;16.70;10.80;;;9.30;99.90;;;;;;5113458;28;20491;-73
2021/03/07 12:20:04;;;;;;;19.13;12.27;;;9.30;99.90;;;;;;5112204;28;20058;-73
2021/03/07 12:22:29;;;;;;;15.57;10.70;;;9.20;99.90;;;;;;5114060;28;20088;-73
2021/03/07 12:24:55;;;;;;;15.77;11.50;;;9.30;99.90;;;;;;5113611;28;20047;-72
2021/03/07 12:27:21;;;;;;;19.67;11.10;;;9.40;99.90;;;;;;5113714;28;20024;-73
2021/03/07 12:29:47;;;;;;;15.10;11.30;;;9.40;99.90;;;;;;5113646;28;20028;-73
2021/03/07 12:32:14;;;;;;;18.10;11.30;;;9.30;99.90;;;;;;5111214;28;20655;-73
2021/03/07 12:34:39;;;;;;;14.00;10.83;;;9.20;99.90;;;;;;5092695;28;20073;-73
2021/03/07 12:37:05;;;;;;;28.50;11.33;;;9.30;99.90;;;;;;5092907;28;20020;-73
2021/03/07 12:39:30;;;;;;;19.63;11.90;;;9.20;99.90;;;;;;5091647;28;20403;-68
2021/03/07 12:41:56;;;;;;;15.93;10.83;;;9.30;99.90;;;;;;5092466;28;20035;-72